Time;durP1;ratioP1;P1;durP2;ratioP2;P2;SDS_P1;SDS_P2;PMS_P1;PMS_P2;Temp;Humidity;BMP_temperature;BMP_pressure;BME280_temperature;BME280_humidity;BME280_pressure;Samples;Min_cycle;Max_cycle;Signal;HPM_P1;HPM_P2
2023/06/01 00:00:28;;;;;;;1.75;0.40;;;18.60;96.40;;;;;;5053473;28;20557;-62
2023/06/01 00:02:56;;;;;;;0.70;0.40;;;18.60;95.70;;;;;;5052246;28;20263;-62
2023/06/01 00:05:24;;;;;;;0.50;0.40;;;18.60;96.50;;;;;;5046537;28;20266;-62
2023/06/01 00:07:52;;;;;;;0.60;0.50;;;18.50;95.50;;;;;;5044809;28;20267;-62
2023/06/01 00:10:21;;;;;;;0.60;0.50;;;18.50;96.20;;;;;;5050645;28;20211;-62
2023/06/01 00:12:49;;;;;;;0.60;0.50;;;18.50;96.00;;;;;;5050074;28;20616;-61
2023/06/01 00:15:17;;;;;;;0.60;0.40;;;18.50;96.30;;;;;;5053005;28;20200;-62
2023/06/01 00:17:46;;;;;;;1.45;0.93;;;18.50;97.40;;;;;;5053608;28;20667;-62
2023/06/01 00:20:14;;;;;;;0.70;0.60;;;18.40;96.30;;;;;;5036866;28;20239;-63
2023/06/01 00:22:42;;;;;;;0.60;0.40;;;18.30;96.10;;;;;;5038293;28;20584;-63
2023/06/01 00:25:11;;;;;;;0.60;0.50;;;18.30;96.70;;;;;;5035583;28;20687;-62
2023/06/01 00:27:40;;;;;;;0.70;0.70;;;18.20;97.40;;;;;;5047740;28;20679;-63
2023/06/01 00:30:09;;;;;;;0.50;0.30;;;18.20;96.80;;;;;;5052007;28;20231;-62
2023/06/01 00:32:37;;;;;;;0.80;0.50;;;18.20;97.50;;;;;;5052753;28;20756;-62
2023/06/01 00:35:05;;;;;;;0.60;0.40;;;18.10;96.70;;;;;;5052616;28;20282;-62
2023/06/01 00:37:33;;;;;;;0.50;0.40;;;18.10;97.40;;;;;;5053002;28;20214;-62
2023/06/01 00:40:01;;;;;;;0.80;0.50;;;18.10;97.60;;;;;;5052656;28;20232;-62
2023/06/01 00:42:29;;;;;;;0.70;0.52;;;18.10;97.30;;;;;;5052556;28;20208;-62
2023/06/01 00:44:59;;;;;;;1.08;0.70;;;18.00;97.20;;;;;;5045272;28;20262;-62
2023/06/01 00:47:27;;;;;;;0.50;0.40;;;18.00;97.90;;;;;;5052827;28;20207;-62
2023/06/01 00:49:55;;;;;;;0.60;0.40;;;18.00;98.20;;;;;;5052464;28;20231;-62
2023/06/01 00:52:24;;;;;;;0.88;0.60;;;18.00;97.90;;;;;;5039993;28;20211;-62
2023/06/01 00:54:52;;;;;;;0.70;0.50;;;17.80;97.40;;;;;;5032390;28;20220;-62
2023/06/01 00:57:20;;;;;;;0.60;0.40;;;17.80;97.70;;;;;;5052518;28;20262;-62
2023/06/01 00:59:48;;;;;;;0.60;0.40;;;17.80;98.10;;;;;;5052366;28;20251;-63
2023/06/01 01:02:18;;;;;;;0.60;0.40;;;17.80;98.00;;;;;;5029269;28;20269;-62
2023/06/01 01:04:52;;;;;;;1.27;0.60;;;17.70;98.70;;;;;;5052294;28;20214;-62
2023/06/01 01:07:26;;;;;;;0.57;0.40;;;17.70;98.20;;;;;;5037384;28;20223;-62
2023/06/01 01:09:59;;;;;;;1.08;0.50;;;17.70;99.20;;;;;;5051997;28;20252;-62
2023/06/01 01:12:31;;;;;;;0.90;0.60;;;17.70;98.80;;;;;;5052297;28;20200;-62
2023/06/01 01:15:08;;;;;;;0.80;0.50;;;17.70;98.70;;;;;;5051912;28;20207;-62
2023/06/01 01:17:42;;;;;;;0.60;0.50;;;17.70;99.10;;;;;;5052347;28;20227;-62
2023/06/01 01:20:15;;;;;;;0.80;0.50;;;17.60;98.60;;;;;;5044615;28;20235;-62
2023/06/01 01:23:12;;;;;;;0.70;0.52;;;17.50;99.00;;;;;;5036688;28;20228;-62
2023/06/01 01:26:10;;;;;;;0.57;0.40;;;17.60;99.80;;;;;;5034405;28;20686;-62
2023/06/01 01:28:43;;;;;;;1.40;0.63;;;17.70;99.60;;;;;;5037202;28;20239;-62
2023/06/01 01:31:14;;;;;;;0.55;0.40;;;17.60;99.50;;;;;;5051833;28;20203;-63
2023/06/01 01:33:44;;;;;;;0.90;0.45;;;17.50;99.90;;;;;;5051636;28;20200;-62
2023/06/01 01:36:13;;;;;;;0.70;0.70;;;17.50;99.20;;;;;;5041113;28;23774;-62
2023/06/01 01:38:41;;;;;;;0.60;0.40;;;17.50;99.90;;;;;;5046656;28;20224;-63
2023/06/01 01:41:09;;;;;;;0.60;0.40;;;17.50;99.90;;;;;;5051776;28;20211;-63
2023/06/01 01:43:38;;;;;;;1.38;0.70;;;17.50;99.90;;;;;;5051475;28;20200;-63
2023/06/01 01:46:14;;;;;;;0.70;0.60;;;17.50;99.90;;;;;;5051439;28;20232;-64
2023/06/01 01:48:51;;;;;;;0.98;0.70;;;17.50;99.90;;;;;;5051583;28;20224;-63
2023/06/01 01:51:25;;;;;;;0.60;0.40;;;17.50;99.90;;;;;;5031845;28;20212;-63
2023/06/01 01:53:55;;;;;;;0.85;0.55;;;17.50;99.90;;;;;;5031163;28;20582;-63
2023/06/01 01:56:25;;;;;;;0.80;0.60;;;17.50;99.90;;;;;;5042661;28;20197;-63
2023/06/01 01:58:54;;;;;;;0.70;0.55;;;17.60;99.90;;;;;;5044371;28;20238;-63
2023/06/01 02:01:28;;;;;;;0.60;0.40;;;17.50;99.90;;;;;;5037390;28;20199;-63
2023/06/01 02:04:01;;;;;;;2.00;0.85;;;17.40;99.90;;;;;;5050612;28;20278;-63
2023/06/01 02:06:29;;;;;;;0.85;0.60;;;17.50;99.90;;;;;;5051152;28;20211;-63
2023/06/01 02:08:57;;;;;;;0.60;0.40;;;17.40;99.90;;;;;;5050846;28;20230;-63
2023/06/01 02:11:25;;;;;;;0.90;0.63;;;17.50;99.90;;;;;;5043655;28;20208;-63
2023/06/01 02:13:53;;;;;;;0.80;0.52;;;17.40;99.90;;;;;;5050952;28;20204;-63
2023/06/01 02:16:21;;;;;;;0.70;0.60;;;17.40;99.90;;;;;;5035128;28;20196;-63
2023/06/01 02:18:51;;;;;;;0.88;0.55;;;17.40;99.90;;;;;;5050590;28;20231;-63
2023/06/01 02:21:19;;;;;;;1.35;1.10;;;17.30;99.90;;;;;;5047184;28;20209;-63
2023/06/01 02:23:47;;;;;;;0.60;0.40;;;17.20;99.90;;;;;;5030686;28;20645;-63
2023/06/01 02:26:16;;;;;;;0.60;0.40;;;17.20;99.90;;;;;;5047885;28;20225;-63
2023/06/01 02:28:44;;;;;;;0.90;0.50;;;17.10;99.90;;;;;;5045824;28;20247;-63
2023/06/01 02:31:13;;;;;;;0.60;0.40;;;17.10;99.90;;;;;;5049164;28;20207;-63
2023/06/01 02:33:41;;;;;;;0.80;0.50;;;17.10;99.90;;;;;;5045090;28;20702;-63
2023/06/01 02:36:10;;;;;;;0.70;0.50;;;17.00;99.90;;;;;;5050628;28;20204;-63
2023/06/01 02:38:38;;;;;;;0.60;0.50;;;17.00;99.90;;;;;;5050758;28;20223;-63
2023/06/01 02:41:06;;;;;;;0.60;0.40;;;16.90;99.90;;;;;;5050644;28;20218;-62
2023/06/01 02:43:40;;;;;;;0.70;0.50;;;16.90;99.90;;;;;;5044911;28;20252;-62
2023/06/01 02:46:08;;;;;;;0.65;0.60;;;16.90;99.90;;;;;;5048542;28;20208;-61
2023/06/01 02:48:36;;;;;;;1.02;0.65;;;16.80;99.90;;;;;;5050587;28;20307;-62
2023/06/01 02:51:04;;;;;;;1.13;0.73;;;16.90;99.90;;;;;;5048791;28;20231;-62
2023/06/01 02:53:33;;;;;;;0.93;0.60;;;16.80;99.90;;;;;;5030425;28;20204;-63
2023/06/01 02:56:01;;;;;;;0.75;0.75;;;16.70;99.90;;;;;;5040634;28;20704;-64
2023/06/01 02:58:30;;;;;;;0.65;0.40;;;16.70;99.90;;;;;;5047934;28;20689;-63
2023/06/01 03:00:58;;;;;;;0.80;0.47;;;16.70;99.90;;;;;;5042536;28;20702;-63
2023/06/01 03:03:26;;;;;;;0.60;0.40;;;16.60;99.90;;;;;;5050299;28;20203;-63
2023/06/01 03:05:55;;;;;;;0.70;0.50;;;16.60;99.90;;;;;;5050503;28;20204;-64
2023/06/01 03:08:24;;;;;;;0.60;0.40;;;16.50;99.90;;;;;;5050517;28;20257;-64
2023/06/01 03:10:53;;;;;;;0.70;0.60;;;16.50;99.90;;;;;;5050427;28;20291;-63
2023/06/01 03:13:21;;;;;;;0.60;0.43;;;16.40;99.90;;;;;;5050121;28;20207;-63
2023/06/01 03:15:50;;;;;;;0.68;0.50;;;16.40;99.90;;;;;;5050414;28;20206;-63
2023/06/01 03:18:18;;;;;;;0.68;0.60;;;16.40;99.90;;;;;;5041784;28;20247;-63
2023/06/01 03:20:47;;;;;;;0.60;0.40;;;16.40;99.90;;;;;;5050563;28;20882;-63
2023/06/01 03:23:15;;;;;;;0.68;0.50;;;16.40;99.90;;;;;;5038764;28;20258;-63
2023/06/01 03:25:43;;;;;;;0.63;0.47;;;16.40;99.90;;;;;;5044371;28;20199;-63
2023/06/01 03:28:12;;;;;;;0.70;0.60;;;16.30;99.90;;;;;;5050102;28;20232;-63
2023/06/01 03:30:42;;;;;;;0.60;0.50;;;16.30;99.90;;;;;;5050362;28;20265;-63
2023/06/01 03:33:10;;;;;;;0.98;0.77;;;16.20;99.90;;;;;;5050015;28;20330;-62
2023/06/01 03:35:38;;;;;;;0.60;0.40;;;16.30;99.90;;;;;;5037282;28;20666;-63
2023/06/01 03:38:06;;;;;;;0.70;0.60;;;16.30;99.90;;;;;;5049922;28;20234;-63
2023/06/01 03:40:34;;;;;;;0.70;0.60;;;16.20;99.90;;;;;;5050225;28;20678;-63
2023/06/01 03:43:03;;;;;;;1.27;0.90;;;16.30;99.90;;;;;;5049887;28;20664;-63
2023/06/01 03:45:32;;;;;;;0.60;0.40;;;16.20;99.90;;;;;;5049823;28;20207;-63
2023/06/01 03:48:00;;;;;;;0.70;0.50;;;16.30;99.90;;;;;;5049785;28;20227;-63
2023/06/01 03:50:28;;;;;;;0.60;0.50;;;16.10;99.90;;;;;;5049984;28;20200;-63
2023/06/01 03:52:56;;;;;;;0.60;0.40;;;16.10;99.90;;;;;;5033160;28;20211;-63
2023/06/01 03:55:24;;;;;;;0.65;0.43;;;16.00;99.90;;;;;;5033843;28;20203;-63
2023/06/01 03:57:52;;;;;;;0.60;0.40;;;15.90;99.90;;;;;;5050116;28;20208;-63
2023/06/01 04:00:20;;;;;;;0.60;0.45;;;15.80;99.90;;;;;;5049919;28;20261;-63
2023/06/01 04:02:52;;;;;;;1.33;0.88;;;15.70;99.90;;;;;;5048524;28;20712;-63
2023/06/01 04:05:20;;;;;;;0.60;0.45;;;15.70;99.90;;;;;;5052961;28;20231;-62
2023/06/01 04:07:51;;;;;;;0.60;0.50;;;15.70;99.90;;;;;;5047023;28;20599;-62
2023/06/01 04:10:19;;;;;;;0.60;0.40;;;15.70;99.90;;;;;;5033507;28;20575;-63
2023/06/01 04:12:49;;;;;;;0.60;0.52;;;15.70;99.90;;;;;;5029121;28;20699;-64
2023/06/01 04:15:19;;;;;;;0.70;0.50;;;15.70;99.90;;;;;;5041061;28;20207;-63
2023/06/01 04:17:48;;;;;;;0.70;0.50;;;15.60;99.90;;;;;;5047967;28;20212;-62
2023/06/01 04:20:17;;;;;;;0.60;0.60;;;15.60;99.90;;;;;;5166743;22;20244;-71
2023/06/01 04:22:46;;;;;;;0.82;0.50;;;15.60;99.90;;;;;;5052012;28;20577;-71
2023/06/01 04:25:17;;;;;;;0.60;0.40;;;15.60;99.90;;;;;;5043115;28;20287;-71
2023/06/01 04:27:48;;;;;;;0.60;0.50;;;15.70;99.90;;;;;;5052778;28;20243;-72
2023/06/01 04:30:16;;;;;;;0.90;0.73;;;15.60;99.90;;;;;;5052423;28;20227;-71
2023/06/01 04:32:47;;;;;;;0.85;0.65;;;15.70;99.90;;;;;;5052576;28;20208;-73
2023/06/01 04:35:17;;;;;;;0.60;0.40;;;15.70;99.90;;;;;;5051837;28;20698;-73
2023/06/01 04:37:46;;;;;;;0.63;0.50;;;15.80;99.90;;;;;;5052475;28;20207;-73
2023/06/01 04:40:14;;;;;;;0.80;0.50;;;15.90;99.90;;;;;;5052264;28;20281;-73
2023/06/01 04:42:45;;;;;;;0.60;0.50;;;16.00;99.90;;;;;;5051663;28;20204;-73
2023/06/01 04:45:15;;;;;;;0.70;0.50;;;16.00;99.90;;;;;;5051736;28;20211;-72
2023/06/01 04:47:44;;;;;;;1.42;0.82;;;16.10;99.90;;;;;;5052288;28;20282;-73
2023/06/01 04:50:15;;;;;;;0.60;0.40;;;16.20;99.90;;;;;;5052314;28;20231;-73
2023/06/01 04:52:45;;;;;;;0.60;0.50;;;16.30;99.90;;;;;;5052156;28;20200;-73
2023/06/01 04:55:13;;;;;;;0.60;0.60;;;16.30;99.90;;;;;;5051555;28;20219;-72
2023/06/01 04:57:43;;;;;;;0.57;0.40;;;16.30;99.90;;;;;;5052120;28;20690;-72
2023/06/01 05:00:13;;;;;;;0.60;0.40;;;16.40;99.90;;;;;;5051678;28;20590;-73
2023/06/01 05:02:43;;;;;;;0.60;0.43;;;16.50;99.90;;;;;;5052241;28;20235;-72
2023/06/01 05:05:12;;;;;;;1.13;0.43;;;16.60;99.90;;;;;;5051530;28;20208;-72
2023/06/01 05:07:41;;;;;;;1.35;0.70;;;16.60;99.90;;;;;;5051972;28;20223;-72
2023/06/01 05:10:12;;;;;;;0.70;0.50;;;16.70;99.90;;;;;;5050706;28;20231;-72
2023/06/01 05:12:40;;;;;;;0.70;0.60;;;16.70;99.90;;;;;;5051747;28;20249;-73
2023/06/01 05:15:10;;;;;;;0.60;0.40;;;16.80;99.90;;;;;;5051234;28;20702;-73
2023/06/01 05:17:38;;;;;;;0.70;0.50;;;16.90;99.90;;;;;;5051807;28;20203;-73
2023/06/01 05:20:08;;;;;;;0.60;0.43;;;17.00;99.90;;;;;;5051397;28;20327;-73
2023/06/01 05:22:37;;;;;;;0.60;0.50;;;17.00;99.90;;;;;;5051743;28;20770;-72
2023/06/01 05:25:06;;;;;;;0.70;0.55;;;17.10;99.90;;;;;;5047790;28;20269;-72
2023/06/01 05:27:36;;;;;;;0.57;0.40;;;17.30;99.90;;;;;;5043811;28;20294;-72
2023/06/01 05:30:06;;;;;;;0.60;0.40;;;17.40;99.90;;;;;;5051491;28;20227;-73
2023/06/01 05:32:34;;;;;;;0.60;0.40;;;17.60;99.90;;;;;;5044180;28;20227;-72
2023/06/01 05:35:04;;;;;;;0.60;0.40;;;17.70;99.90;;;;;;5046977;28;20682;-73
2023/06/01 05:37:32;;;;;;;0.60;0.50;;;17.80;99.90;;;;;;5043354;28;20674;-73
2023/06/01 05:40:00;;;;;;;0.60;0.40;;;17.90;99.90;;;;;;5047266;28;20220;-73
2023/06/01 05:42:28;;;;;;;0.93;0.93;;;18.00;99.90;;;;;;5046811;28;20658;-72
2023/06/01 05:44:57;;;;;;;0.75;0.60;;;18.10;99.90;;;;;;5051355;28;20210;-73
2023/06/01 05:47:25;;;;;;;0.57;0.40;;;18.10;99.90;;;;;;5051306;28;20209;-72
2023/06/01 05:49:53;;;;;;;0.90;0.70;;;18.20;99.90;;;;;;5051415;28;20224;-73
2023/06/01 05:52:21;;;;;;;0.50;0.30;;;18.40;99.90;;;;;;5050757;28;20204;-72
2023/06/01 05:54:50;;;;;;;0.60;0.40;;;18.50;99.90;;;;;;5051193;28;20215;-73
2023/06/01 05:57:18;;;;;;;0.60;0.40;;;18.60;99.90;;;;;;5051211;28;20207;-72
2023/06/01 05:59:46;;;;;;;0.60;0.38;;;18.70;99.90;;;;;;5045100;28;20232;-72
2023/06/01 06:02:16;;;;;;;0.70;0.65;;;18.80;99.90;;;;;;5043536;28;20205;-73
2023/06/01 06:04:44;;;;;;;0.60;0.40;;;18.90;99.90;;;;;;5043880;28;20213;-73
2023/06/01 06:07:12;;;;;;;0.60;0.40;;;19.00;99.90;;;;;;5044176;28;20209;-73
2023/06/01 06:09:41;;;;;;;0.60;0.40;;;19.10;99.90;;;;;;5043115;28;20228;-73
2023/06/01 06:12:09;;;;;;;0.60;0.40;;;19.20;99.90;;;;;;5046204;28;20232;-73
2023/06/01 06:14:37;;;;;;;0.50;0.40;;;19.30;99.90;;;;;;5048426;28;20205;-73
2023/06/01 06:17:07;;;;;;;0.60;0.40;;;19.30;99.90;;;;;;5044383;28;20212;-72
2023/06/01 06:19:36;;;;;;;0.60;0.47;;;19.40;99.90;;;;;;5040322;28;20236;-73
2023/06/01 06:22:05;;;;;;;0.60;0.30;;;19.60;99.90;;;;;;5045027;28;20231;-73
2023/06/01 06:24:33;;;;;;;0.70;0.50;;;19.70;99.90;;;;;;5050650;28;20208;-73
2023/06/01 06:27:01;;;;;;;0.60;0.40;;;19.90;99.90;;;;;;5049706;28;20691;-73
2023/06/01 06:29:30;;;;;;;0.98;0.60;;;20.10;99.90;;;;;;5050717;28;20236;-73
2023/06/01 06:31:58;;;;;;;0.60;0.50;;;20.10;99.90;;;;;;5051077;28;20239;-73
2023/06/01 06:34:26;;;;;;;0.85;0.45;;;20.10;99.90;;;;;;5050717;28;20204;-73
2023/06/01 06:36:55;;;;;;;0.77;0.55;;;20.20;99.90;;;;;;5050681;28;20232;-73
2023/06/01 06:39:23;;;;;;;0.70;0.60;;;20.30;99.90;;;;;;5050751;28;20294;-73
2023/06/01 06:41:51;;;;;;;0.60;0.45;;;20.40;99.90;;;;;;5050925;28;20217;-73
2023/06/01 06:44:19;;;;;;;0.70;0.50;;;20.50;99.90;;;;;;5050690;28;20209;-73
2023/06/01 06:46:47;;;;;;;0.70;0.50;;;20.60;99.90;;;;;;5050661;28;20197;-73
2023/06/01 06:49:15;;;;;;;0.70;0.52;;;20.70;99.90;;;;;;5050815;28;20580;-73
2023/06/01 06:51:43;;;;;;;0.60;0.40;;;20.80;99.90;;;;;;5050708;28;20205;-73
2023/06/01 06:54:12;;;;;;;0.57;0.40;;;20.90;99.90;;;;;;5050394;28;20228;-73
2023/06/01 06:56:40;;;;;;;0.60;0.45;;;21.00;99.90;;;;;;5050698;28;20263;-73
2023/06/01 06:59:09;;;;;;;0.60;0.40;;;21.00;99.90;;;;;;5050656;28;20275;-73
2023/06/01 07:01:37;;;;;;;1.02;0.93;;;21.00;99.90;;;;;;5042385;28;20210;-73
2023/06/01 07:04:09;;;;;;;0.70;0.40;;;21.00;99.90;;;;;;5050612;28;20535;-73
2023/06/01 07:06:38;;;;;;;0.57;0.40;;;21.20;99.90;;;;;;5042542;28;20660;-73
2023/06/01 07:09:07;;;;;;;0.70;0.60;;;21.30;99.90;;;;;;5050639;28;20229;-73
2023/06/01 07:11:36;;;;;;;0.63;0.43;;;21.50;99.90;;;;;;5050502;28;20208;-73
2023/06/01 07:14:04;;;;;;;0.60;0.47;;;21.60;99.90;;;;;;5050460;28;20209;-73
2023/06/01 07:16:32;;;;;;;0.60;0.43;;;21.60;99.90;;;;;;5050196;28;20213;-73
2023/06/01 07:19:00;;;;;;;0.80;0.45;;;21.70;99.90;;;;;;5050344;28;20758;-73
2023/06/01 07:21:28;;;;;;;0.68;0.60;;;21.80;99.90;;;;;;5050343;28;20216;-73
2023/06/01 07:23:57;;;;;;;0.60;0.40;;;21.90;99.90;;;;;;5050306;28;20211;-73
2023/06/01 07:26:26;;;;;;;0.60;0.40;;;22.10;99.90;;;;;;5050148;28;20622;-73
2023/06/01 07:28:56;;;;;;;0.70;0.55;;;22.20;99.90;;;;;;5050426;28;20229;-73
2023/06/01 07:31:24;;;;;;;0.85;0.55;;;22.30;99.90;;;;;;5050323;28;20274;-73
2023/06/01 07:33:52;;;;;;;1.30;0.65;;;22.50;99.90;;;;;;5050922;28;20217;-72
2023/06/01 07:36:23;;;;;;;0.70;0.50;;;22.50;99.90;;;;;;5053998;28;20210;-72
2023/06/01 07:38:51;;;;;;;0.60;0.40;;;22.50;99.90;;;;;;5054337;28;20226;-72
2023/06/01 07:41:19;;;;;;;1.77;0.70;;;22.50;99.90;;;;;;5054005;28;20206;-72
2023/06/01 07:43:47;;;;;;;0.60;0.40;;;22.60;99.90;;;;;;5053880;28;20213;-72
2023/06/01 07:46:16;;;;;;;0.60;0.40;;;22.60;99.90;;;;;;5053768;28;20559;-72
2023/06/01 07:48:44;;;;;;;0.65;0.50;;;22.70;99.40;;;;;;5053894;28;20615;-72
2023/06/01 07:51:12;;;;;;;0.60;0.45;;;22.90;99.90;;;;;;5053986;28;20214;-72
2023/06/01 07:53:40;;;;;;;0.60;0.40;;;23.10;99.70;;;;;;5045787;28;20252;-71
2023/06/01 07:56:08;;;;;;;0.82;0.65;;;23.20;99.00;;;;;;5053583;28;20214;-72
2023/06/01 07:58:37;;;;;;;0.82;0.50;;;23.40;98.40;;;;;;5053798;28;20252;-72
2023/06/01 08:01:06;;;;;;;0.75;0.50;;;23.30;97.90;;;;;;5053143;28;20202;-72
2023/06/01 08:03:35;;;;;;;0.57;0.40;;;23.30;99.40;;;;;;5053543;28;20211;-72
2023/06/01 08:06:04;;;;;;;1.08;0.93;;;23.40;98.90;;;;;;5053523;28;20236;-72
2023/06/01 08:08:33;;;;;;;0.60;0.50;;;23.30;97.90;;;;;;5053386;28;20221;-72
2023/06/01 08:11:01;;;;;;;0.60;0.40;;;23.20;97.90;;;;;;5053253;28;20237;-72
2023/06/01 08:13:29;;;;;;;0.60;0.40;;;23.40;98.70;;;;;;5053348;28;20206;-72
2023/06/01 08:15:58;;;;;;;0.60;0.40;;;23.60;97.90;;;;;;5053340;28;20217;-72
2023/06/01 08:18:26;;;;;;;0.60;0.40;;;23.80;97.50;;;;;;5053476;28;20218;-72
2023/06/01 08:20:56;;;;;;;0.70;0.50;;;24.00;97.50;;;;;;5053202;28;20275;-71
2023/06/01 08:23:24;;;;;;;0.65;0.60;;;24.20;96.80;;;;;;5052734;28;20214;-72
2023/06/01 08:25:52;;;;;;;0.70;0.50;;;24.20;98.40;;;;;;5053229;28;20267;-73
2023/06/01 08:28:20;;;;;;;0.85;0.60;;;24.40;97.00;;;;;;5052996;28;20304;-72
2023/06/01 08:30:48;;;;;;;0.60;0.40;;;24.50;97.60;;;;;;5053238;28;20237;-72
2023/06/01 08:33:16;;;;;;;0.80;0.63;;;24.80;97.30;;;;;;5053264;28;20656;-72
2023/06/01 08:35:44;;;;;;;0.60;0.40;;;24.90;96.60;;;;;;5053356;28;20670;-72
2023/06/01 08:38:13;;;;;;;0.60;0.40;;;25.10;96.60;;;;;;5052868;28;20217;-72
2023/06/01 08:40:41;;;;;;;1.65;0.50;;;25.30;94.90;;;;;;5044841;28;20277;-72
2023/06/01 08:43:18;;;;;;;0.93;0.68;;;25.30;94.90;;;;;;5053175;28;20214;-72
2023/06/01 08:45:47;;;;;;;0.70;0.50;;;25.10;95.60;;;;;;5045134;28;20229;-72
2023/06/01 08:48:19;;;;;;;0.60;0.50;;;25.10;95.90;;;;;;5052772;28;20202;-72
2023/06/01 08:50:53;;;;;;;0.60;0.50;;;25.00;95.10;;;;;;5045735;28;20230;-73
2023/06/01 08:53:23;;;;;;;1.50;0.70;;;25.10;96.20;;;;;;5049780;28;20242;-72
2023/06/01 08:55:55;;;;;;;0.60;0.47;;;25.40;96.20;;;;;;5052749;28;20206;-72
2023/06/01 08:58:23;;;;;;;0.80;0.77;;;25.70;93.80;;;;;;5052657;28;20536;-72
2023/06/01 09:00:53;;;;;;;0.60;0.40;;;25.50;94.30;;;;;;5052557;28;20235;-72
2023/06/01 09:03:21;;;;;;;0.60;0.40;;;25.70;95.10;;;;;;5052625;28;20621;-72
2023/06/01 09:05:49;;;;;;;0.82;0.70;;;25.90;94.00;;;;;;5052578;28;20352;-73
2023/06/01 09:08:18;;;;;;;0.60;0.40;;;25.90;93.50;;;;;;5052335;28;20239;-72
2023/06/01 09:10:47;;;;;;;0.60;0.43;;;26.00;93.20;;;;;;5044610;28;20231;-72
2023/06/01 09:13:31;;;;;;;0.60;0.50;;;26.20;93.60;;;;;;5052334;28;20800;-72
2023/06/01 09:15:59;;;;;;;0.90;0.68;;;26.40;93.00;;;;;;5046281;28;20212;-72
2023/06/01 09:18:27;;;;;;;0.60;0.50;;;26.60;93.00;;;;;;5051921;28;20207;-72
2023/06/01 09:20:56;;;;;;;0.60;0.40;;;26.70;93.00;;;;;;5052027;28;20638;-72
2023/06/01 09:23:28;;;;;;;0.93;0.68;;;26.90;94.00;;;;;;5051933;28;20212;-72
2023/06/01 09:26:07;;;;;;;0.70;0.57;;;27.00;92.80;;;;;;5052217;28;20203;-72
2023/06/01 09:28:55;;;;;;;1.55;0.75;;;26.90;91.90;;;;;;5034123;28;20203;-72
2023/06/01 09:31:37;;;;;;;0.60;0.40;;;26.80;90.10;;;;;;5051857;28;20298;-72
2023/06/01 09:34:05;;;;;;;0.90;0.50;;;27.10;92.50;;;;;;5051882;28;20214;-73
2023/06/01 09:36:34;;;;;;;0.60;0.40;;;27.10;90.20;;;;;;5052075;28;20204;-73
2023/06/01 09:39:03;;;;;;;0.60;0.40;;;27.20;91.40;;;;;;5051937;28;20219;-72
2023/06/01 09:41:46;;;;;;;0.60;0.43;;;27.40;91.60;;;;;;5051655;28;20207;-72
2023/06/01 09:44:22;;;;;;;1.00;0.45;;;27.60;91.30;;;;;;5051639;28;20204;-72
2023/06/01 09:46:51;;;;;;;0.70;0.50;;;27.80;88.80;;;;;;5044288;28;20213;-73
2023/06/01 09:49:21;;;;;;;0.85;0.60;;;28.00;89.30;;;;;;5051561;28;20234;-73
2023/06/01 09:51:49;;;;;;;0.60;0.50;;;28.40;88.90;;;;;;5043974;28;20674;-73
2023/06/01 09:54:28;;;;;;;0.70;0.50;;;28.90;88.60;;;;;;5051370;28;20209;-73
2023/06/01 09:56:58;;;;;;;0.70;0.55;;;29.10;85.60;;;;;;5044218;28;20270;-73
2023/06/01 09:59:43;;;;;;;0.65;0.47;;;29.20;87.10;;;;;;5051171;28;20273;-73
2023/06/01 10:02:16;;;;;;;0.60;0.50;;;29.20;88.50;;;;;;5051136;28;20572;-73
2023/06/01 10:04:48;;;;;;;0.70;0.65;;;29.10;87.60;;;;;;5050906;28;20204;-73
2023/06/01 10:07:17;;;;;;;0.60;0.47;;;28.90;86.80;;;;;;5050920;28;20207;-73
2023/06/01 10:09:49;;;;;;;0.60;0.40;;;28.70;90.50;;;;;;5051261;28;20402;-73
2023/06/01 10:12:18;;;;;;;0.60;0.40;;;28.70;85.50;;;;;;5051334;28;20224;-73
2023/06/01 10:14:46;;;;;;;0.60;0.40;;;28.70;86.40;;;;;;5050900;28;20203;-73
2023/06/01 10:17:16;;;;;;;0.65;0.50;;;29.00;84.80;;;;;;5051212;28;20204;-73
2023/06/01 10:19:45;;;;;;;1.08;0.50;;;29.40;84.00;;;;;;5077172;22;20227;-65
2023/06/01 10:22:13;;;;;;;0.60;0.50;;;29.50;85.20;;;;;;5059868;28;20211;-65
2023/06/01 10:24:43;;;;;;;0.70;0.60;;;29.60;84.00;;;;;;5053260;28;20208;-64
2023/06/01 10:27:20;;;;;;;0.70;0.50;;;29.50;83.50;;;;;;5070962;28;20211;-65
2023/06/01 10:29:48;;;;;;;0.60;0.40;;;29.60;80.40;;;;;;5063138;28;20750;-65
2023/06/01 10:32:42;;;;;;;0.60;0.40;;;29.60;81.80;;;;;;5091280;28;20222;-65
2023/06/01 10:35:11;;;;;;;0.60;0.40;;;30.10;84.60;;;;;;5080838;28;20612;-64
2023/06/01 10:37:39;;;;;;;1.13;0.50;;;30.40;78.50;;;;;;5091074;28;20620;-64
2023/06/01 10:40:22;;;;;;;0.70;0.50;;;30.50;78.60;;;;;;5091188;28;20659;-65
2023/06/01 10:42:52;;;;;;;0.93;0.60;;;30.80;82.80;;;;;;5075750;28;21151;-64
2023/06/01 10:45:39;;;;;;;0.60;0.40;;;30.60;81.10;;;;;;5091304;28;20622;-64
2023/06/01 10:48:10;;;;;;;0.60;0.43;;;30.40;81.40;;;;;;5079864;28;20617;-64
2023/06/01 10:50:39;;;;;;;0.60;0.40;;;30.50;78.20;;;;;;5091215;28;21231;-64
2023/06/01 10:53:27;;;;;;;0.70;0.60;;;30.40;78.90;;;;;;5067911;28;20245;-64
2023/06/01 10:56:21;;;;;;;0.97;0.97;;;30.50;77.70;;;;;;5076185;28;20961;-64
2023/06/01 10:59:13;;;;;;;0.60;0.40;;;30.20;78.80;;;;;;5082473;28;20622;-64
2023/06/01 11:01:47;;;;;;;0.70;0.40;;;30.30;75.20;;;;;;5090978;28;20610;-64
2023/06/01 11:04:16;;;;;;;0.60;0.40;;;30.50;78.30;;;;;;5090747;28;20711;-64
2023/06/01 11:06:45;;;;;;;0.67;0.53;;;30.50;75.60;;;;;;5090758;28;20638;-64
2023/06/01 11:09:15;;;;;;;0.70;0.60;;;30.70;77.70;;;;;;5091886;28;20661;-62
2023/06/01 11:12:02;;;;;;;0.60;0.40;;;30.50;73.20;;;;;;5095104;28;20661;-62
2023/06/01 11:14:33;;;;;;;1.20;0.60;;;30.40;74.50;;;;;;5094671;28;20716;-62
2023/06/01 11:17:27;;;;;;;0.77;0.50;;;30.30;73.90;;;;;;5095361;28;20639;-62
2023/06/01 11:20:06;;;;;;;0.60;0.40;;;30.60;73.30;;;;;;5079393;28;20663;-62
2023/06/01 11:22:37;;;;;;;0.70;0.50;;;31.00;77.80;;;;;;5075782;28;20715;-62
2023/06/01 11:25:07;;;;;;;0.60;0.40;;;31.20;72.80;;;;;;5080300;28;21032;-62
2023/06/01 11:27:37;;;;;;;0.60;0.50;;;31.20;71.00;;;;;;5094566;28;20622;-62
2023/06/01 11:30:08;;;;;;;0.60;0.47;;;31.10;75.00;;;;;;5094471;28;20666;-62
2023/06/01 11:32:41;;;;;;;0.60;0.50;;;30.90;74.60;;;;;;5094271;28;20659;-62
2023/06/01 11:35:20;;;;;;;0.70;0.50;;;30.70;72.20;;;;;;5094418;28;20667;-62
2023/06/01 11:37:54;;;;;;;0.60;0.50;;;30.80;73.20;;;;;;5094280;28;20671;-62
2023/06/01 11:40:23;;;;;;;0.60;0.40;;;31.10;73.70;;;;;;5083547;28;20525;-62
2023/06/01 11:42:54;;;;;;;0.60;0.40;;;31.30;71.80;;;;;;5066063;28;20695;-62
2023/06/01 11:45:26;;;;;;;0.60;0.40;;;31.00;73.30;;;;;;5074026;28;20813;-62
2023/06/01 11:47:54;;;;;;;1.33;0.60;;;30.50;71.50;;;;;;5066026;28;20626;-62
2023/06/01 11:50:26;;;;;;;1.47;0.50;;;30.50;72.60;;;;;;5073482;28;20655;-62
2023/06/01 11:52:55;;;;;;;0.77;0.50;;;30.90;71.50;;;;;;5070606;28;20655;-62
2023/06/01 11:55:23;;;;;;;0.60;0.50;;;31.30;71.50;;;;;;5081616;28;20620;-62
2023/06/01 11:57:51;;;;;;;0.70;0.60;;;31.50;71.80;;;;;;5093797;28;20628;-63
2023/06/01 12:00:20;;;;;;;0.60;0.40;;;31.60;72.30;;;;;;5093889;28;20643;-62
2023/06/01 12:02:49;;;;;;;0.70;0.57;;;31.80;70.20;;;;;;5093504;28;20627;-62
2023/06/01 12:05:17;;;;;;;0.67;0.50;;;32.30;69.30;;;;;;5093900;28;20622;-62
2023/06/01 12:07:46;;;;;;;0.60;0.40;;;32.80;70.30;;;;;;5093625;28;21006;-62
2023/06/01 12:10:16;;;;;;;0.70;0.50;;;32.90;68.80;;;;;;5093722;28;20663;-62
2023/06/01 12:12:45;;;;;;;0.70;0.60;;;32.30;69.30;;;;;;5093423;28;20697;-62
2023/06/01 12:15:15;;;;;;;0.60;0.40;;;32.10;69.80;;;;;;5093529;28;20648;-63
2023/06/01 12:17:49;;;;;;;0.97;0.40;;;31.80;70.00;;;;;;5093625;28;20632;-62
2023/06/01 12:20:31;;;;;;;0.60;0.40;;;31.40;69.40;;;;;;5092715;28;21217;-62
2023/06/01 12:23:00;;;;;;;0.60;0.50;;;31.90;70.60;;;;;;5070660;28;20658;-62
2023/06/01 12:25:29;;;;;;;0.60;0.50;;;32.30;68.90;;;;;;5081514;28;20630;-62
2023/06/01 12:28:04;;;;;;;0.97;0.60;;;32.30;68.30;;;;;;5077529;28;20616;-63
2023/06/01 12:30:32;;;;;;;0.67;0.47;;;32.60;68.90;;;;;;5093177;28;20689;-62
2023/06/01 12:33:04;;;;;;;0.80;0.50;;;32.60;67.20;;;;;;5093493;28;21266;-63
2023/06/01 12:35:32;;;;;;;0.60;0.50;;;32.70;67.30;;;;;;5093110;28;20620;-62
2023/06/01 12:38:04;;;;;;;0.73;0.40;;;32.70;67.30;;;;;;5093493;28;20632;-62
2023/06/01 12:40:33;;;;;;;0.63;0.50;;;33.20;68.80;;;;;;5093118;28;20646;-62
2023/06/01 12:43:01;;;;;;;0.60;0.50;;;33.20;67.60;;;;;;5093319;28;20618;-62
2023/06/01 12:45:37;;;;;;;0.67;0.53;;;33.60;67.00;;;;;;5093085;28;20635;-62
2023/06/01 12:48:07;;;;;;;1.27;0.60;;;33.90;66.60;;;;;;5079232;28;20672;-63
2023/06/01 12:50:43;;;;;;;0.67;0.40;;;33.90;67.60;;;;;;5092907;28;20701;-62
2023/06/01 12:53:12;;;;;;;1.20;0.50;;;33.50;66.10;;;;;;5068458;28;20648;-62
2023/06/01 12:55:40;;;;;;;0.70;0.50;;;33.60;67.50;;;;;;5082296;28;20619;-62
2023/06/01 12:58:08;;;;;;;0.60;0.50;;;33.70;66.60;;;;;;5092918;28;20633;-63
2023/06/01 13:00:36;;;;;;;0.70;0.57;;;33.60;67.20;;;;;;5092691;28;20655;-63
2023/06/01 13:03:25;;;;;;;0.60;0.40;;;33.40;67.90;;;;;;5093239;28;20618;-62